createdAt,value
2017-04-03T00:00:09.833Z,85.42
2017-04-03T00:00:50.480Z,85.42
2017-04-03T00:01:31.136Z,85.33
2017-04-03T00:02:11.808Z,85.52
2017-04-03T00:02:52.521Z,85.9
2017-04-03T00:03:33.084Z,85.99
2017-04-03T00:04:13.741Z,85.71
2017-04-03T00:04:54.377Z,85.99
2017-04-03T00:05:34.950Z,85.61
2017-04-03T00:06:15.615Z,85.71
2017-04-03T00:06:56.236Z,85.71
2017-04-03T00:07:36.820Z,86.09
2017-04-03T00:08:17.447Z,85.99
2017-04-03T00:08:58.155Z,85.9
2017-04-03T00:09:38.855Z,85.99
2017-04-03T00:10:19.421Z,86.47
2017-04-03T00:11:00.087Z,86.47
2017-04-03T00:11:40.760Z,86.47
2017-04-03T00:12:21.375Z,86.38
2017-04-03T00:13:02.092Z,86.18
2017-04-03T00:13:42.718Z,86.38
2017-04-03T00:14:23.379Z,86.18
2017-04-03T00:15:04.033Z,86.38
2017-04-03T00:15:44.693Z,86.28
2017-04-03T00:16:25.339Z,86.38
2017-04-03T00:17:07.004Z,86.38
2017-04-03T00:17:47.669Z,86.47
2017-04-03T00:18:28.320Z,86.47
2017-04-03T00:19:08.975Z,86.47
2017-04-03T00:19:49.631Z,86.47
2017-04-03T00:20:30.281Z,86.47
2017-04-03T00:21:10.931Z,86.38
2017-04-03T00:21:52.612Z,86.38
2017-04-03T00:22:33.300Z,85.99
2017-04-03T00:23:13.846Z,85.99
2017-04-03T00:23:54.523Z,85.99
2017-04-03T00:24:35.222Z,85.52
2017-04-03T00:25:15.917Z,85.9
2017-04-03T00:25:56.485Z,85.8
2017-04-03T00:26:37.159Z,85.61
2017-04-03T00:27:17.834Z,85.61
2017-04-03T00:27:58.536Z,85.71
2017-04-03T00:28:39.107Z,85.61
2017-04-03T00:29:19.740Z,85.8
2017-04-03T00:30:00.742Z,85.61
2017-04-03T00:30:41.453Z,85.8
2017-04-03T00:31:22.014Z,85.8
2017-04-03T00:32:03.746Z,85.61
2017-04-03T00:32:44.391Z,85.71
2017-04-03T00:33:25.073Z,85.24
2017-04-03T00:34:05.649Z,85.42
2017-04-03T00:34:46.295Z,84.85
2017-04-03T00:35:27.005Z,85.42
2017-04-03T00:36:07.698Z,85.14
2017-04-03T00:36:48.256Z,85.52
2017-04-03T00:37:28.926Z,85.24
2017-04-03T00:38:09.567Z,84.85
2017-04-03T00:38:50.252Z,85.04
2017-04-03T00:39:30.965Z,84.47
2017-04-03T00:40:11.640Z,84.76
2017-04-03T00:40:52.302Z,84.89
2017-04-03T00:41:33.053Z,85.08
2017-04-03T00:42:13.783Z,84.61
2017-04-03T00:42:54.371Z,84.42
2017-04-03T00:43:35.107Z,84.61
2017-04-03T00:44:15.736Z,84.8
2017-04-03T00:44:56.303Z,84.89
2017-04-03T00:45:36.960Z,84.66
2017-04-03T00:46:18.409Z,84.89
2017-04-03T00:46:58.968Z,84.33
2017-04-03T00:47:39.641Z,84.42
2017-04-03T00:48:20.294Z,84.42
2017-04-03T00:49:00.938Z,84.42
2017-04-03T00:49:41.619Z,84.42
2017-04-03T00:50:22.233Z,84.42
2017-04-03T00:51:02.892Z,84.42
2017-04-03T00:51:43.554Z,84.33
2017-04-03T00:52:24.298Z,84.38
2017-04-03T00:53:04.944Z,84.61
2017-04-03T00:53:45.494Z,84.52
2017-04-03T00:54:26.171Z,84.7
2017-04-03T00:55:06.871Z,84.8
2017-04-03T00:55:47.557Z,83.85
2017-04-03T00:56:28.109Z,83.94
2017-04-03T00:57:08.782Z,83.85
2017-04-03T00:57:49.510Z,83.94
2017-04-03T00:58:30.072Z,83.9
2017-04-03T00:59:10.725Z,83.62
2017-04-03T00:59:51.373Z,84.04
2017-04-03T01:00:31.929Z,84.47
2017-04-03T01:01:12.604Z,84.66
2017-04-03T01:01:53.329Z,84.56
2017-04-03T01:02:33.881Z,84.28
2017-04-03T01:03:14.555Z,84.56
2017-04-03T01:03:55.288Z,84.47
2017-04-03T01:04:35.846Z,84.47
2017-04-03T01:05:16.510Z,83.71
2017-04-03T01:05:57.143Z,83.9
2017-04-03T01:06:37.708Z,84.76
2017-04-03T01:07:18.379Z,84.47
2017-04-03T01:07:59.098Z,84.38
2017-04-03T01:08:39.674Z,84.38
2017-04-03T01:09:20.324Z,84.56
2017-04-03T01:10:00.979Z,84.38
2017-04-03T01:10:41.648Z,84.56
2017-04-03T01:11:22.388Z,84.66
2017-04-03T01:12:03.044Z,84.76
2017-04-03T01:12:43.777Z,84.85
2017-04-03T01:13:24.344Z,84.76
2017-04-03T01:14:05.931Z,84.85
2017-04-03T01:14:46.656Z,84.56
2017-04-03T01:15:27.216Z,84.56
2017-04-03T01:16:07.884Z,84.56
2017-04-03T01:16:48.624Z,84.47
2017-04-03T01:17:29.196Z,84.56
2017-04-03T01:18:09.946Z,84.95
2017-04-03T01:18:50.716Z,85.04
2017-04-03T01:19:31.476Z,84.66
2017-04-03T01:20:12.213Z,84.76
2017-04-03T01:20:52.850Z,84.76
2017-04-03T01:21:33.621Z,84.95
2017-04-03T01:22:14.311Z,84.56
2017-04-03T01:22:55.000Z,84.47
2017-04-03T01:23:35.595Z,84.47
2017-04-03T01:24:16.340Z,84.56
2017-04-03T01:24:57.030Z,84.66
2017-04-03T01:25:37.716Z,84.95
2017-04-03T01:26:18.261Z,85.04
2017-04-03T01:26:58.934Z,84.76
2017-04-03T01:27:39.645Z,84.76
2017-04-03T01:28:20.398Z,84.56
2017-04-03T01:29:01.150Z,85.04
2017-04-03T01:29:41.910Z,84.85
2017-04-03T01:30:22.659Z,85.04
2017-04-03T01:31:03.315Z,84.56
2017-04-03T01:31:44.068Z,84.47
2017-04-03T01:32:24.720Z,84.47
2017-04-03T01:33:05.373Z,85.14
2017-04-03T01:33:46.121Z,85.04
2017-04-03T01:34:26.783Z,84.66
2017-04-03T01:35:07.433Z,85.04
2017-04-03T01:35:48.190Z,85.14
2017-04-03T01:36:28.843Z,84.95
2017-04-03T01:37:09.599Z,84.66
2017-04-03T01:37:50.183Z,84.85
2017-04-03T01:38:30.860Z,85.14
2017-04-03T01:39:11.601Z,84.95
2017-04-03T01:39:52.180Z,85.14
2017-04-03T01:40:32.951Z,85.14
2017-04-03T01:41:13.653Z,84.56
2017-04-03T01:41:54.224Z,84.56
2017-04-03T01:42:34.876Z,84.66
2017-04-03T01:43:15.529Z,84.56
2017-04-03T01:43:56.184Z,84.56
2017-04-03T01:44:36.843Z,84.47
2017-04-03T01:45:17.594Z,84.66
2017-04-03T01:45:58.253Z,84.76
2017-04-03T01:46:39.013Z,84.76
2017-04-03T01:47:19.771Z,84.95
2017-04-03T01:48:00.495Z,84.66
2017-04-03T01:48:41.059Z,84.95
2017-04-03T01:49:21.707Z,84.62
2017-04-03T01:50:02.347Z,84.76
2017-04-03T01:50:42.914Z,84.72
2017-04-03T01:51:23.588Z,84.33
2017-04-03T01:52:04.320Z,84.81
2017-04-03T01:52:45.078Z,84.56
2017-04-03T01:53:25.823Z,84.43
2017-04-03T01:54:06.578Z,84.33
2017-04-03T01:54:47.332Z,84.33
2017-04-03T01:55:28.094Z,84.72
2017-04-03T01:56:08.740Z,84.72
2017-04-03T01:56:49.495Z,84.56
2017-04-03T01:57:30.059Z,84.52
2017-04-03T01:58:10.751Z,84.62
2017-04-03T01:58:51.416Z,84.66
2017-04-03T01:59:32.112Z,84.91
2017-04-03T02:00:12.697Z,84.52
2017-04-03T02:00:53.354Z,84.62
2017-04-03T02:01:34.045Z,84.91
2017-04-03T02:02:14.580Z,84.91
2017-04-03T02:02:55.306Z,84.62
2017-04-03T02:03:36.029Z,84.43
2017-04-03T02:04:16.602Z,84.33
2017-04-03T02:04:57.361Z,84.19
2017-04-03T02:05:38.094Z,84.38
2017-04-03T02:06:18.675Z,84.38
2017-04-03T02:06:59.438Z,84.47
2017-04-03T02:07:40.148Z,84.38
2017-04-03T02:08:20.815Z,84.56
2017-04-03T02:09:01.572Z,84.47
2017-04-03T02:09:42.317Z,84.47
2017-04-03T02:10:23.070Z,84.56
2017-04-03T02:11:03.735Z,84.19
2017-04-03T02:11:44.482Z,83.9
2017-04-03T02:12:25.056Z,83.9
2017-04-03T02:13:05.811Z,83.9
2017-04-03T02:13:46.501Z,83.71
2017-04-03T02:14:27.197Z,83.81
2017-04-03T02:15:07.767Z,83.9
2017-04-03T02:15:48.518Z,84.09
2017-04-03T02:16:29.213Z,83.9
2017-04-03T02:17:09.895Z,83.9
2017-04-03T02:17:50.563Z,83.9
2017-04-03T02:18:31.315Z,83.81
2017-04-03T02:19:12.073Z,84.09
2017-04-03T02:19:52.828Z,84
2017-04-03T02:20:33.582Z,83.9
2017-04-03T02:21:14.343Z,83.9
2017-04-03T02:21:55.095Z,84.56
2017-04-03T02:22:36.563Z,84.33
2017-04-03T02:23:17.242Z,84.43
2017-04-03T02:23:57.929Z,84.14
2017-04-03T02:24:38.625Z,84.62
2017-04-03T02:25:19.196Z,84.52
2017-04-03T02:25:59.949Z,84.52
2017-04-03T02:26:40.649Z,84.62
2017-04-03T02:27:21.222Z,84.52
2017-04-03T02:28:01.921Z,84.52
2017-04-03T02:28:42.673Z,84.52
2017-04-03T02:29:23.243Z,84.33
2017-04-03T02:30:05.015Z,84.33
2017-04-03T02:30:45.730Z,84.52
2017-04-03T02:31:26.309Z,84.43
2017-04-03T02:32:07.052Z,85
2017-04-03T02:32:47.806Z,84.72
2017-04-03T02:33:28.378Z,84.91
2017-04-03T02:34:09.110Z,84.72
2017-04-03T02:34:49.880Z,84.72
2017-04-03T02:35:30.636Z,84.43
2017-04-03T02:36:11.394Z,84.52
2017-04-03T02:36:52.153Z,85
2017-04-03T02:37:32.833Z,85
2017-04-03T02:38:13.535Z,85
2017-04-03T02:38:54.105Z,84.43
2017-04-03T02:39:34.904Z,84.43
2017-04-03T02:40:15.648Z,84.52
2017-04-03T02:40:58.905Z,84.81
2017-04-03T02:41:40.606Z,85
2017-04-03T02:42:21.197Z,84.43
2017-04-03T02:43:07.463Z,84.91
2017-04-03T02:43:49.141Z,84.91
2017-04-03T02:44:29.796Z,85.1
2017-04-03T02:45:12.394Z,84.52
2017-04-03T02:45:54.071Z,84.56
2017-04-03T02:46:34.717Z,84.52
2017-04-03T02:47:16.379Z,84.62
2017-04-03T02:47:56.978Z,84.43
2017-04-03T02:48:37.580Z,84.43
2017-04-03T02:49:18.155Z,84.72
2017-04-03T02:49:59.830Z,84.81
2017-04-03T02:50:40.421Z,84.81
2017-04-03T02:51:21.014Z,84.52
2017-04-03T02:52:01.585Z,84.72
2017-04-03T02:52:43.261Z,84.43
2017-04-03T02:53:25.847Z,84.62
2017-04-03T02:54:06.498Z,85
2017-04-03T02:54:48.182Z,85.19
2017-04-03T02:55:29.872Z,85.28
2017-04-03T02:56:10.512Z,85.47
2017-04-03T02:56:52.191Z,85.1
2017-04-03T02:57:32.852Z,85.28
2017-04-03T02:58:13.523Z,85.28
2017-04-03T02:58:56.104Z,85.19
2017-04-03T02:59:38.803Z,85.19
2017-04-03T03:00:19.446Z,84.81
2017-04-03T03:01:00.094Z,84.91
2017-04-03T03:01:51.401Z,85.28
2017-04-03T03:02:36.973Z,85.38
2017-04-03T03:03:17.662Z,85.38
2017-04-03T03:03:59.295Z,85.47
2017-04-03T03:04:39.942Z,85.38
2017-04-03T03:05:21.631Z,84.81
2017-04-03T03:06:02.285Z,84.91
2017-04-03T03:06:47.475Z,84.91
2017-04-03T03:07:28.084Z,84.91
2017-04-03T03:08:08.677Z,85.38
2017-04-03T03:08:50.301Z,85.19
2017-04-03T03:09:30.873Z,85.38
2017-04-03T03:10:11.663Z,85.28
2017-04-03T03:10:53.236Z,85.38
2017-04-03T03:11:35.880Z,85.66
2017-04-03T03:12:16.453Z,85.86
2017-04-03T03:12:58.129Z,85.86
2017-04-03T03:13:38.765Z,85.86
2017-04-03T03:14:19.333Z,85.76
2017-04-03T03:15:01.011Z,85.57
2017-04-03T03:15:41.645Z,85.57
2017-04-03T03:16:22.224Z,85.66
2017-04-03T03:17:02.872Z,85.66
2017-04-03T03:17:43.494Z,86.14
2017-04-03T03:18:24.084Z,85.95
2017-04-03T03:19:04.720Z,86.33
2017-04-03T03:19:45.377Z,86.43
2017-04-03T03:20:26.022Z,86.33
2017-04-03T03:21:07.709Z,85.95
2017-04-03T03:21:49.389Z,86.19
2017-04-03T03:22:31.981Z,86.19
2017-04-03T03:23:12.636Z,86.47
2017-04-03T03:23:53.289Z,86.52
2017-04-03T03:24:35.898Z,86.29
2017-04-03T03:25:17.565Z,86.57
2017-04-03T03:26:00.158Z,86.47
2017-04-03T03:26:40.810Z,86.95
2017-04-03T03:27:23.470Z,86.67
2017-04-03T03:28:04.150Z,86.67
2017-04-03T03:28:44.730Z,86.86
2017-04-03T03:29:25.389Z,86.76
2017-04-03T03:30:08.054Z,86.76
2017-04-03T03:30:48.637Z,86.67
2017-04-03T03:31:35.944Z,86.76
2017-04-03T03:32:16.564Z,86.86
2017-04-03T03:32:57.220Z,86.67
2017-04-03T03:33:43.708Z,86.76
2017-04-03T03:34:25.387Z,87.62
2017-04-03T03:35:06.041Z,87.34
2017-04-03T03:35:48.732Z,87.34
2017-04-03T03:36:30.411Z,87.34
2017-04-03T03:37:11.059Z,87.34
2017-04-03T03:37:51.671Z,87.43
2017-04-03T03:38:32.290Z,87.24
2017-04-03T03:39:12.873Z,87.34
2017-04-03T03:39:53.470Z,87.52
2017-04-03T03:40:34.064Z,87.34
2017-04-03T03:41:15.719Z,87.34
2017-04-03T03:41:58.353Z,87.34
2017-04-03T03:42:39.977Z,87.52
2017-04-03T03:43:20.624Z,86.86
2017-04-03T03:44:02.300Z,86.71
2017-04-03T03:44:42.964Z,86.71
2017-04-03T03:45:23.629Z,86.61
2017-04-03T03:46:05.280Z,86.8
2017-04-03T03:46:45.933Z,86.8
2017-04-03T03:47:26.587Z,86.99
2017-04-03T03:48:09.286Z,86.67
2017-04-03T03:48:49.941Z,86.8
2017-04-03T03:49:30.590Z,86.9
2017-04-03T03:50:13.193Z,86.71
2017-04-03T03:50:54.875Z,86.71
2017-04-03T03:51:37.572Z,86.9
2017-04-03T03:52:19.255Z,86.9
2017-04-03T03:52:59.840Z,86.99
2017-04-03T03:53:41.505Z,86.8
2017-04-03T03:54:22.161Z,86.99
2017-04-03T03:55:02.813Z,86.99
2017-04-03T03:55:50.008Z,86.99
2017-04-03T03:56:30.662Z,86.71
2017-04-03T03:57:13.259Z,86.8
2017-04-03T03:57:53.915Z,86.61
2017-04-03T03:58:34.576Z,86.61
2017-04-03T03:59:19.937Z,86.71
2017-04-03T04:00:00.583Z,87.09
2017-04-03T04:00:41.237Z,86.61
2017-04-03T04:01:23.848Z,86.61
2017-04-03T04:02:04.492Z,86.71
2017-04-03T04:02:45.150Z,86.71
2017-04-03T04:03:25.772Z,86.71
2017-04-03T04:04:06.378Z,86.9
2017-04-03T04:04:47.014Z,86.71
2017-04-03T04:05:28.649Z,86.71
2017-04-03T04:06:09.236Z,86.8
2017-04-03T04:06:56.537Z,87.38
2017-04-03T04:07:37.161Z,87.19
2017-04-03T04:08:17.912Z,87.47
2017-04-03T04:09:03.286Z,87.28
2017-04-03T04:09:43.864Z,87.28
2017-04-03T04:10:24.507Z,87.28
2017-04-03T04:11:05.157Z,87.57
2017-04-03T04:11:45.819Z,87.38
2017-04-03T04:12:27.506Z,87.47
2017-04-03T04:13:08.151Z,87.38
2017-04-03T04:13:49.827Z,87.38
2017-04-03T04:14:30.483Z,87.57
2017-04-03T04:15:12.154Z,87.38
2017-04-03T04:15:53.834Z,87.66
2017-04-03T04:16:34.475Z,86.71
2017-04-03T04:17:15.147Z,86.71
2017-04-03T04:17:55.789Z,86.61
2017-04-03T04:18:36.449Z,87.19
2017-04-03T04:19:17.107Z,87.47
2017-04-03T04:19:57.758Z,87.38
2017-04-03T04:20:38.405Z,87.19
2017-04-03T04:21:20.081Z,87.57
2017-04-03T04:22:01.766Z,87.19
2017-04-03T04:22:43.340Z,87.47
2017-04-03T04:23:23.912Z,86.8
2017-04-03T04:24:04.546Z,86.9
2017-04-03T04:24:51.203Z,86.9
2017-04-03T04:25:31.788Z,86.8
2017-04-03T04:26:12.431Z,86.71
2017-04-03T04:26:58.693Z,86.61
2017-04-03T04:27:39.274Z,86.99
2017-04-03T04:28:20.934Z,86.99
2017-04-03T04:29:01.613Z,86.9
2017-04-03T04:29:42.149Z,86.8
2017-04-03T04:30:23.815Z,86.8
2017-04-03T04:31:05.483Z,86.9
2017-04-03T04:31:46.060Z,86.8
2017-04-03T04:32:26.694Z,86.99
2017-04-03T04:33:08.357Z,87.19
2017-04-03T04:33:49.007Z,87.09
2017-04-03T04:34:29.668Z,86.71
2017-04-03T04:35:10.313Z,86.9
2017-04-03T04:35:50.965Z,86.8
2017-04-03T04:36:32.640Z,86.99
2017-04-03T04:37:14.319Z,86.71
2017-04-03T04:37:54.934Z,86.67
2017-04-03T04:38:35.605Z,86.71
2017-04-03T04:39:16.289Z,86.76
2017-04-03T04:39:56.867Z,87.14
2017-04-03T04:40:37.510Z,86.9
2017-04-03T04:41:23.670Z,86.67
2017-04-03T04:42:04.254Z,86.86
2017-04-03T04:42:45.928Z,86.76
2017-04-03T04:43:27.644Z,86.71
2017-04-03T04:44:10.272Z,86.57
2017-04-03T04:44:50.860Z,87.34
2017-04-03T04:45:32.520Z,87.19
2017-04-03T04:46:14.230Z,87.34
2017-04-03T04:46:55.857Z,87.34
2017-04-03T04:47:36.435Z,87.34
2017-04-03T04:48:17.069Z,87.34
2017-04-03T04:49:02.375Z,86.67
2017-04-03T04:49:42.969Z,86.76
2017-04-03T04:50:23.554Z,86.76
2017-04-03T04:51:04.204Z,86.76
2017-04-03T04:51:45.903Z,86.8
2017-04-03T04:52:26.507Z,86.71
2017-04-03T04:53:07.075Z,86.8
2017-04-03T04:53:47.737Z,86.8
2017-04-03T04:54:28.355Z,87.43
2017-04-03T04:55:08.939Z,86.71
2017-04-03T04:55:50.611Z,86.76
2017-04-03T04:56:31.238Z,86.57
2017-04-03T04:57:11.813Z,87.52
2017-04-03T04:57:52.458Z,87.34
2017-04-03T04:58:33.087Z,87.34
2017-04-03T04:59:13.676Z,87.34
2017-04-03T04:59:54.303Z,87.38
2017-04-03T05:00:35.983Z,87.14
2017-04-03T05:01:16.565Z,87.52
2017-04-03T05:01:59.250Z,87.34
2017-04-03T05:02:39.873Z,87.24
2017-04-03T05:03:20.525Z,87.34
2017-04-03T05:04:01.195Z,87.14
2017-04-03T05:04:41.836Z,87.14
2017-04-03T05:05:22.481Z,87.14
2017-04-03T05:06:07.641Z,87.14
2017-04-03T05:06:55.147Z,87.14
2017-04-03T05:07:35.724Z,87.24
2017-04-03T05:08:16.395Z,87.14
2017-04-03T05:08:57.023Z,87.34
2017-04-03T05:09:37.712Z,87.24
2017-04-03T05:10:18.331Z,87.14
2017-04-03T05:10:59.038Z,87.34
2017-04-03T05:11:39.642Z,87.05
2017-04-03T05:12:20.286Z,87.24
2017-04-03T05:13:00.877Z,87.05
2017-04-03T05:13:41.481Z,87.14
2017-04-03T05:14:22.043Z,87.14
2017-04-03T05:15:02.699Z,87.14
2017-04-03T05:15:43.298Z,87.14
2017-04-03T05:16:23.887Z,87.14
2017-04-03T05:17:04.472Z,87.24
2017-04-03T05:17:45.111Z,87.14
2017-04-03T05:18:25.743Z,87.14
2017-04-03T05:19:06.327Z,86.95
2017-04-03T05:19:46.967Z,87.05
2017-04-03T05:20:28.627Z,87.24
2017-04-03T05:21:09.198Z,87.24
2017-04-03T05:21:50.930Z,87.24
2017-04-03T05:22:31.611Z,87.05
2017-04-03T05:23:12.258Z,87.14
2017-04-03T05:23:52.912Z,87.34
2017-04-03T05:24:33.559Z,87.24
2017-04-03T05:25:14.221Z,87.34
2017-04-03T05:25:54.863Z,87.52
2017-04-03T05:26:35.521Z,87.34
2017-04-03T05:27:16.170Z,87.52
2017-04-03T05:27:56.835Z,86.76
2017-04-03T05:28:37.485Z,86.67
2017-04-03T05:29:18.135Z,86.67
2017-04-03T05:30:03.702Z,86.95
2017-04-03T05:30:44.367Z,86.95
2017-04-03T05:31:35.660Z,86.86
2017-04-03T05:32:28.195Z,86.95
2017-04-03T05:33:08.785Z,87.05
2017-04-03T05:33:49.410Z,86.67
2017-04-03T05:34:45.785Z,86.95
2017-04-03T05:35:27.391Z,86.76
2017-04-03T05:36:07.971Z,86.95
2017-04-03T05:36:53.533Z,86.67
2017-04-03T05:42:23.076Z,86.47
2017-04-03T05:43:03.650Z,86.29
2017-04-03T05:43:44.265Z,86.19
2017-04-03T05:44:24.876Z,86.19
2017-04-03T05:45:05.478Z,86.1
2017-04-03T05:45:46.129Z,86.38
2017-04-03T05:46:31.554Z,86.1
2017-04-03T05:47:12.122Z,86.19
2017-04-03T05:47:59.433Z,85.91
2017-04-03T05:48:44.912Z,85.91
2017-04-03T05:49:25.561Z,86.1
2017-04-03T05:50:06.204Z,86.1
2017-04-03T05:50:46.901Z,86.1
2017-04-03T05:51:27.516Z,86.19
2017-04-03T05:52:09.191Z,86.1
2017-04-03T05:52:49.844Z,86.19
2017-04-03T05:53:32.444Z,86.19
2017-04-03T05:54:15.042Z,86.19
2017-04-03T05:54:55.708Z,86.1
2017-04-03T05:55:36.362Z,86.19
2017-04-03T05:56:22.945Z,85.91
2017-04-03T05:57:03.583Z,86.1
2017-04-03T05:57:44.243Z,86.1
2017-04-03T05:58:24.922Z,86.1
2017-04-03T05:59:17.464Z,86.1
2017-04-03T05:59:58.105Z,86.19
2017-04-03T06:00:38.728Z,86.1
2017-04-03T06:01:20.426Z,86.1
2017-04-03T06:02:01.056Z,86.1
2017-04-03T06:02:41.710Z,85.91
2017-04-03T06:03:22.385Z,86.29
2017-04-03T06:04:03.037Z,86.1
2017-04-03T06:04:44.709Z,86.19
2017-04-03T06:05:27.415Z,86.38
2017-04-03T06:06:12.823Z,86.29
2017-04-03T06:06:53.415Z,86.1
2017-04-03T06:07:36.008Z,86.19
2017-04-03T06:08:16.614Z,86.1
2017-04-03T06:08:57.268Z,86.38
2017-04-03T06:09:38.984Z,86.38
2017-04-03T06:10:20.620Z,86.38
2017-04-03T06:11:01.312Z,86.57
2017-04-03T06:11:42.850Z,86.19
2017-04-03T06:12:24.448Z,86.19
2017-04-03T06:13:09.699Z,86.19
2017-04-03T06:13:50.307Z,86.47
2017-04-03T06:14:30.953Z,86.47
2017-04-03T06:15:11.606Z,86.47
2017-04-03T06:17:12.144Z,86.29
2017-04-03T06:17:52.706Z,86.47
2017-04-03T06:18:33.339Z,86.29
2017-04-03T06:19:14.007Z,86.19
2017-04-03T06:19:59.561Z,86.19
2017-04-03T06:20:40.216Z,86.29
2017-04-03T06:21:20.894Z,86.29
2017-04-03T06:22:01.521Z,86.38
2017-04-03T06:22:43.192Z,86.38
2017-04-03T06:23:24.800Z,86.38
2017-04-03T06:24:05.398Z,86.29
2017-04-03T06:24:46.052Z,86.1
2017-04-03T06:25:26.769Z,86.1
2017-04-03T06:26:07.416Z,86.47
2017-04-03T06:26:49.042Z,86.38
2017-04-03T06:27:29.613Z,86
2017-04-03T06:28:10.288Z,85.91
2017-04-03T06:28:50.951Z,85.53
2017-04-03T06:29:31.541Z,85.62
2017-04-03T06:30:12.114Z,85.72
2017-04-03T06:30:52.829Z,85.57
2017-04-03T06:31:38.382Z,85.53
2017-04-03T06:32:19.079Z,85.81
2017-04-03T06:32:59.650Z,85.53
2017-04-03T06:33:41.307Z,85.53
2017-04-03T06:34:22.931Z,85.53
2017-04-03T06:35:03.638Z,85.53
2017-04-03T06:35:44.203Z,85.81
2017-04-03T06:36:24.844Z,85.91
2017-04-03T06:37:05.445Z,85.72
2017-04-03T06:37:46.039Z,85.62
2017-04-03T06:38:26.604Z,86.1
2017-04-03T06:39:08.268Z,85.91
2017-04-03T06:39:48.890Z,85.53
2017-04-03T06:40:30.487Z,85.15
2017-04-03T06:41:11.095Z,85.34
2017-04-03T06:41:51.669Z,85.47
2017-04-03T06:42:33.037Z,85.19
2017-04-03T06:43:14.848Z,85.19
2017-04-03T06:43:56.052Z,85.28
2017-04-03T06:44:36.697Z,84.72
2017-04-03T06:45:17.356Z,85
2017-04-03T06:45:58.774Z,84.81
2017-04-03T06:46:39.355Z,84.72
2017-04-03T06:47:20.031Z,84.81
2017-04-03T06:48:00.610Z,84.91
2017-04-03T06:48:41.205Z,85.1
2017-04-03T06:49:23.788Z,84.43
2017-04-03T06:50:04.380Z,84.43
2017-04-03T06:50:44.949Z,84.33
2017-04-03T06:51:25.527Z,84.52
2017-04-03T06:52:07.112Z,84.81
2017-04-03T06:52:47.658Z,84.81
2017-04-03T06:53:28.230Z,84.33
2017-04-03T06:54:10.803Z,84.33
2017-04-03T06:54:51.373Z,84.24
2017-04-03T06:55:32.951Z,84.52
2017-04-03T06:56:13.618Z,83.86
2017-04-03T06:56:56.713Z,83.58
2017-04-03T06:57:37.288Z,83.95
2017-04-03T06:58:17.872Z,83.62
2017-04-03T06:58:58.463Z,83.19
2017-04-03T06:59:39.076Z,83.62
2017-04-03T07:00:19.664Z,83.71
2017-04-03T07:01:00.254Z,83.42
2017-04-03T07:01:40.888Z,83.33
2017-04-03T07:02:28.027Z,83.23
2017-04-03T07:03:13.504Z,83.52
2017-04-03T07:03:54.140Z,83.29
2017-04-03T07:04:34.737Z,83.29
2017-04-03T07:05:15.351Z,83.48
2017-04-03T07:06:00.544Z,83.39
2017-04-03T07:06:41.079Z,83.29
2017-04-03T07:07:23.666Z,83.48
2017-04-03T07:08:04.236Z,83.58
2017-04-03T07:08:45.806Z,83.52
2017-04-03T07:09:26.503Z,83.19
2017-04-03T07:10:08.093Z,83.33
2017-04-03T07:10:49.657Z,82.95
2017-04-03T07:11:30.257Z,82.76
2017-04-03T07:12:10.828Z,82.95
2017-04-03T07:12:51.380Z,82.95
2017-04-03T07:13:37.820Z,82.67
2017-04-03T07:14:19.382Z,82.95
2017-04-03T07:14:59.960Z,83.04
2017-04-03T07:15:40.530Z,82.81
2017-04-03T07:16:21.108Z,82.86
2017-04-03T07:17:01.674Z,82.81
2017-04-03T07:17:42.247Z,82.76
2017-04-03T07:18:22.798Z,83.04
2017-04-03T07:19:05.374Z,82.62
2017-04-03T07:19:45.951Z,82.71
2017-04-03T07:20:27.093Z,82.38
2017-04-03T07:21:08.670Z,82.43
2017-04-03T07:21:49.265Z,82.71
2017-04-03T07:22:29.820Z,82.81
2017-04-03T07:23:10.403Z,82.71
2017-04-03T07:23:51.002Z,82.76
2017-04-03T07:24:31.579Z,82.67
2017-04-03T07:25:12.142Z,82.57
2017-04-03T07:25:52.737Z,82.28
2017-04-03T07:26:33.319Z,82.57
2017-04-03T07:27:13.880Z,82.57
2017-04-03T07:27:54.458Z,82.57
2017-04-03T07:28:35.018Z,83.23
2017-04-03T07:29:15.591Z,82.48
2017-04-03T07:29:56.149Z,82.67
2017-04-03T07:30:36.715Z,82.48
2017-04-03T07:31:17.401Z,82.57
2017-04-03T07:31:57.977Z,82.57
2017-04-03T07:32:38.527Z,82.76
2017-04-03T07:33:20.096Z,82.09
2017-04-03T07:34:00.664Z,82.28
2017-04-03T07:34:43.249Z,82.38
2017-04-03T07:35:25.835Z,82.28
2017-04-03T07:36:06.407Z,82.48
2017-04-03T07:36:46.994Z,81.9
2017-04-03T07:37:27.561Z,82
2017-04-03T07:38:08.126Z,81.71
2017-04-03T07:38:49.700Z,81.71
2017-04-03T07:39:30.290Z,81.24
2017-04-03T07:40:10.962Z,81.52
2017-04-03T07:40:51.535Z,81.24
2017-04-03T07:41:32.103Z,81.05
2017-04-03T07:42:12.658Z,81.62
2017-04-03T07:42:53.236Z,80.47
2017-04-03T07:43:34.604Z,80.76
2017-04-03T07:44:15.268Z,80.86
2017-04-03T07:44:55.907Z,80.66
2017-04-03T07:45:36.488Z,80.61
2017-04-03T07:46:17.125Z,80.52
2017-04-03T07:46:57.761Z,80.33
2017-04-03T07:47:38.330Z,80.38
2017-04-03T07:48:18.993Z,80.33
2017-04-03T07:48:59.644Z,80.13
2017-04-03T07:49:45.101Z,80.61
2017-04-03T07:50:26.777Z,79.72
2017-04-03T07:51:07.438Z,79.66
2017-04-03T07:51:48.086Z,79.75
2017-04-03T07:52:28.787Z,79.94
2017-04-03T07:53:11.348Z,79.72
2017-04-03T07:53:52.034Z,79.81
2017-04-03T07:54:33.665Z,80.29
2017-04-03T07:55:16.300Z,80.1
2017-04-03T07:55:56.898Z,80.29
2017-04-03T07:56:37.453Z,80.1
2017-04-03T07:57:18.119Z,79.81
2017-04-03T07:57:58.822Z,79.62
2017-04-03T07:58:39.464Z,79.62
2017-04-03T07:59:21.150Z,79.52
2017-04-03T08:00:01.798Z,79.62
2017-04-03T08:00:42.453Z,79.62
2017-04-03T08:01:23.120Z,79.52
2017-04-03T08:02:03.748Z,79.52
2017-04-03T08:02:45.032Z,79.52
2017-04-03T08:03:25.612Z,79.62
2017-04-03T08:04:06.302Z,79.52
2017-04-03T08:04:46.923Z,79.52
2017-04-03T08:05:27.477Z,79.62
2017-04-03T08:06:13.049Z,79.72
2017-04-03T08:06:53.701Z,79.81
2017-04-03T08:07:34.310Z,79.72
2017-04-03T08:08:19.601Z,79.43
2017-04-03T08:09:00.218Z,79.33
2017-04-03T08:09:40.872Z,79.33
2017-04-03T08:10:21.483Z,79.33
2017-04-03T08:11:02.130Z,78.99
2017-04-03T08:11:42.784Z,78.99
2017-04-03T08:12:24.467Z,79.19
2017-04-03T08:13:05.137Z,79.19
2017-04-03T08:13:45.779Z,78.9
2017-04-03T08:14:26.430Z,79.09
2017-04-03T08:15:07.081Z,78.29
2017-04-03T08:15:47.713Z,78.61
2017-04-03T08:16:28.397Z,78.33
2017-04-03T08:17:09.057Z,78.71
2017-04-03T08:17:49.699Z,78.71
2017-04-03T08:18:31.384Z,78.61
2017-04-03T08:19:13.993Z,78.23
2017-04-03T08:19:54.562Z,78.52
2017-04-03T08:20:35.256Z,78.52
2017-04-03T08:21:16.854Z,78.42
2017-04-03T08:21:57.543Z,78.61
2017-04-03T08:22:38.108Z,78.14
2017-04-03T08:23:18.849Z,77.85
2017-04-03T08:24:00.481Z,78.23
2017-04-03T08:24:41.153Z,78.14
2017-04-03T08:25:21.794Z,78.14
2017-04-03T08:26:02.431Z,78.04
2017-04-03T08:26:43.096Z,78.04
2017-04-03T08:27:23.725Z,78.04
2017-04-03T08:28:04.275Z,78.04
2017-04-03T08:28:44.877Z,77.85
2017-04-03T08:29:25.494Z,78.33
2017-04-03T08:30:06.148Z,77.85
2017-04-03T08:30:46.813Z,78.14
2017-04-03T08:31:28.392Z,78.04
2017-04-03T08:32:11.008Z,77.66
2017-04-03T08:32:51.624Z,77.76
2017-04-03T08:33:32.266Z,77.85
2017-04-03T08:34:12.922Z,77.85
2017-04-03T08:34:53.593Z,77.56
2017-04-03T08:35:35.298Z,77.66
2017-04-03T08:36:17.041Z,77.76
2017-04-03T08:36:57.723Z,77.66
2017-04-03T08:37:39.359Z,77.85
2017-04-03T08:38:19.997Z,77.8
2017-04-03T08:39:00.585Z,77.61
2017-04-03T08:39:41.162Z,77.56
2017-04-03T08:40:21.775Z,77.56
2017-04-03T08:41:02.466Z,77.28
2017-04-03T08:41:43.113Z,77.66
2017-04-03T08:42:23.803Z,78.04
2017-04-03T08:43:04.482Z,78.23
2017-04-03T08:43:51.789Z,77.85
2017-04-03T08:44:32.443Z,78.14
2017-04-03T08:45:13.028Z,78.33
2017-04-03T08:45:53.667Z,78.71
2017-04-03T08:46:34.243Z,78.33
2017-04-03T08:47:14.828Z,78.04
2017-04-03T08:47:56.396Z,78.04
2017-04-03T08:48:36.998Z,77.85
2017-04-03T08:49:17.577Z,77.66
2017-04-03T08:49:58.159Z,77.85
2017-04-03T08:50:38.739Z,77.66
2017-04-03T08:51:19.347Z,77.76
2017-04-03T08:52:00.028Z,77.28
2017-04-03T08:52:40.835Z,77.37
2017-04-03T08:53:21.465Z,77.19
2017-04-03T08:54:02.138Z,77.19
2017-04-03T08:54:42.827Z,76.75
2017-04-03T08:55:25.402Z,76.84
2017-04-03T08:56:06.041Z,76.84
2017-04-03T08:56:52.245Z,76.56
2017-04-03T08:57:32.842Z,76.84
2017-04-03T08:58:13.411Z,76.65
2017-04-03T08:58:58.562Z,76.84